sensor_id;sensor_type;location;lat;lon;timestamp;temperature;humidity
9223;DHT22;7557;51.698;3.942;2023-03-19T00:00:40;11.60;99.90
9223;DHT22;7557;51.698;3.942;2023-03-19T00:03:08;11.60;99.90
9223;DHT22;7557;51.698;3.942;2023-03-19T00:05:37;11.50;99.90
9223;DHT22;7557;51.698;3.942;2023-03-19T00:08:05;11.50;99.90
9223;DHT22;7557;51.698;3.942;2023-03-19T00:10:32;11.50;99.90
9223;DHT22;7557;51.698;3.942;2023-03-19T00:13:03;11.40;99.90
9223;DHT22;7557;51.698;3.942;2023-03-19T00:15:32;11.30;99.90
9223;DHT22;7557;51.698;3.942;2023-03-19T00:17:59;11.30;99.90
9223;DHT22;7557;51.698;3.942;2023-03-19T00:20:26;11.30;99.90
9223;DHT22;7557;51.698;3.942;2023-03-19T00:22:56;11.30;99.90
9223;DHT22;7557;51.698;3.942;2023-03-19T00:25:23;11.20;99.90
9223;DHT22;7557;51.698;3.942;2023-03-19T00:27:51;11.30;99.90
9223;DHT22;7557;51.698;3.942;2023-03-19T00:30:20;11.30;99.90
9223;DHT22;7557;51.698;3.942;2023-03-19T00:32:49;11.20;99.90
9223;DHT22;7557;51.698;3.942;2023-03-19T00:35:16;11.20;99.90
9223;DHT22;7557;51.698;3.942;2023-03-19T00:37:44;11.20;99.90
9223;DHT22;7557;51.698;3.942;2023-03-19T00:40:13;11.20;99.90
9223;DHT22;7557;51.698;3.942;2023-03-19T00:42:41;11.10;99.90
9223;DHT22;7557;51.698;3.942;2023-03-19T00:45:10;11.10;99.90
9223;DHT22;7557;51.698;3.942;2023-03-19T00:47:38;11.00;99.90
9223;DHT22;7557;51.698;3.942;2023-03-19T00:50:06;11.00;99.90
9223;DHT22;7557;51.698;3.942;2023-03-19T00:52:34;11.10;99.90
9223;DHT22;7557;51.698;3.942;2023-03-19T00:55:01;11.10;99.90
9223;DHT22;7557;51.698;3.942;2023-03-19T00:57:30;11.10;99.90
9223;DHT22;7557;51.698;3.942;2023-03-19T00:59:58;11.00;99.90
9223;DHT22;7557;51.698;3.942;2023-03-19T01:02:26;11.00;99.90
9223;DHT22;7557;51.698;3.942;2023-03-19T01:04:53;11.00;99.90
9223;DHT22;7557;51.698;3.942;2023-03-19T01:07:21;11.00;99.90
9223;DHT22;7557;51.698;3.942;2023-03-19T01:09:48;10.90;99.90
9223;DHT22;7557;51.698;3.942;2023-03-19T01:12:16;10.90;99.90
9223;DHT22;7557;51.698;3.942;2023-03-19T01:14:46;10.90;99.90
9223;DHT22;7557;51.698;3.942;2023-03-19T01:17:14;10.90;99.90
9223;DHT22;7557;51.698;3.942;2023-03-19T01:19:41;10.90;99.90
9223;DHT22;7557;51.698;3.942;2023-03-19T01:22:09;10.90;99.90
9223;DHT22;7557;51.698;3.942;2023-03-19T01:24:37;10.90;99.90
9223;DHT22;7557;51.698;3.942;2023-03-19T01:27:05;10.80;99.90
9223;DHT22;7557;51.698;3.942;2023-03-19T01:29:32;10.80;99.90
9223;DHT22;7557;51.698;3.942;2023-03-19T01:32:02;10.70;99.90
9223;DHT22;7557;51.698;3.942;2023-03-19T01:34:29;10.80;99.90
9223;DHT22;7557;51.698;3.942;2023-03-19T01:36:57;10.80;99.90
9223;DHT22;7557;51.698;3.942;2023-03-19T01:39:25;10.80;99.90
9223;DHT22;7557;51.698;3.942;2023-03-19T01:41:52;10.80;99.90
9223;DHT22;7557;51.698;3.942;2023-03-19T01:44:24;10.80;99.90
9223;DHT22;7557;51.698;3.942;2023-03-19T01:46:52;10.80;99.90
9223;DHT22;7557;51.698;3.942;2023-03-19T01:49:22;10.80;99.90
9223;DHT22;7557;51.698;3.942;2023-03-19T01:51:51;10.80;99.90
9223;DHT22;7557;51.698;3.942;2023-03-19T01:54:21;10.80;99.90
9223;DHT22;7557;51.698;3.942;2023-03-19T01:56:52;10.80;99.90
9223;DHT22;7557;51.698;3.942;2023-03-19T01:59:24;10.90;99.90
9223;DHT22;7557;51.698;3.942;2023-03-19T02:01:56;10.80;99.90
9223;DHT22;7557;51.698;3.942;2023-03-19T02:04:27;10.80;99.90
9223;DHT22;7557;51.698;3.942;2023-03-19T02:06:56;10.80;99.90
9223;DHT22;7557;51.698;3.942;2023-03-19T02:09:25;10.80;99.90
9223;DHT22;7557;51.698;3.942;2023-03-19T02:11:54;10.80;99.90
9223;DHT22;7557;51.698;3.942;2023-03-19T02:14:22;10.80;99.90
9223;DHT22;7557;51.698;3.942;2023-03-19T02:16:49;10.70;99.90
9223;DHT22;7557;51.698;3.942;2023-03-19T02:19:21;10.60;99.90
9223;DHT22;7557;51.698;3.942;2023-03-19T02:21:52;10.60;99.90
9223;DHT22;7557;51.698;3.942;2023-03-19T02:24:24;10.60;99.90
9223;DHT22;7557;51.698;3.942;2023-03-19T02:26:54;10.60;99.90
9223;DHT22;7557;51.698;3.942;2023-03-19T02:29:23;10.60;99.90
9223;DHT22;7557;51.698;3.942;2023-03-19T02:31:50;10.50;99.90
9223;DHT22;7557;51.698;3.942;2023-03-19T02:34:34;10.50;99.90
9223;DHT22;7557;51.698;3.942;2023-03-19T02:37:06;10.40;99.90
9223;DHT22;7557;51.698;3.942;2023-03-19T02:39:39;10.40;99.90
9223;DHT22;7557;51.698;3.942;2023-03-19T02:42:11;10.40;99.90
9223;DHT22;7557;51.698;3.942;2023-03-19T02:44:39;10.30;99.90
9223;DHT22;7557;51.698;3.942;2023-03-19T02:47:07;10.30;99.90
9223;DHT22;7557;51.698;3.942;2023-03-19T02:49:34;10.30;99.90
9223;DHT22;7557;51.698;3.942;2023-03-19T02:52:02;10.20;99.90
9223;DHT22;7557;51.698;3.942;2023-03-19T02:54:29;10.20;99.90
9223;DHT22;7557;51.698;3.942;2023-03-19T02:56:57;10.20;99.90
9223;DHT22;7557;51.698;3.942;2023-03-19T02:59:26;10.10;99.90
9223;DHT22;7557;51.698;3.942;2023-03-19T03:01:54;10.10;99.90
9223;DHT22;7557;51.698;3.942;2023-03-19T03:04:21;10.10;99.90
9223;DHT22;7557;51.698;3.942;2023-03-19T03:06:49;10.10;99.90
9223;DHT22;7557;51.698;3.942;2023-03-19T03:09:16;10.10;99.90
9223;DHT22;7557;51.698;3.942;2023-03-19T03:11:44;10.10;99.90
9223;DHT22;7557;51.698;3.942;2023-03-19T03:14:11;10.20;99.90
9223;DHT22;7557;51.698;3.942;2023-03-19T03:16:40;10.20;99.90
9223;DHT22;7557;51.698;3.942;2023-03-19T03:19:08;10.20;99.90
9223;DHT22;7557;51.698;3.942;2023-03-19T03:21:36;10.10;99.90
9223;DHT22;7557;51.698;3.942;2023-03-19T03:24:04;10.00;99.90
9223;DHT22;7557;51.698;3.942;2023-03-19T03:26:31;10.00;99.90
9223;DHT22;7557;51.698;3.942;2023-03-19T03:28:59;9.90;99.90
9223;DHT22;7557;51.698;3.942;2023-03-19T03:31:27;9.90;99.90
9223;DHT22;7557;51.698;3.942;2023-03-19T03:33:56;9.90;99.90
9223;DHT22;7557;51.698;3.942;2023-03-19T03:36:24;9.90;99.90
9223;DHT22;7557;51.698;3.942;2023-03-19T03:38:52;9.90;99.90
9223;DHT22;7557;51.698;3.942;2023-03-19T03:41:20;10.00;99.90
9223;DHT22;7557;51.698;3.942;2023-03-19T03:43:47;9.90;99.90
9223;DHT22;7557;51.698;3.942;2023-03-19T03:46:15;9.90;99.90
9223;DHT22;7557;51.698;3.942;2023-03-19T03:48:43;9.90;99.90
9223;DHT22;7557;51.698;3.942;2023-03-19T03:51:11;9.90;99.90
9223;DHT22;7557;51.698;3.942;2023-03-19T03:53:39;9.90;99.90
9223;DHT22;7557;51.698;3.942;2023-03-19T03:56:07;9.90;99.90
9223;DHT22;7557;51.698;3.942;2023-03-19T03:58:34;9.80;99.90
9223;DHT22;7557;51.698;3.942;2023-03-19T04:01:02;9.80;99.90
9223;DHT22;7557;51.698;3.942;2023-03-19T04:03:31;9.90;99.90
9223;DHT22;7557;51.698;3.942;2023-03-19T04:05:58;9.80;99.90
9223;DHT22;7557;51.698;3.942;2023-03-19T04:08:27;9.80;99.90
9223;DHT22;7557;51.698;3.942;2023-03-19T04:10:55;9.80;99.90
9223;DHT22;7557;51.698;3.942;2023-03-19T04:13:23;9.80;99.90
9223;DHT22;7557;51.698;3.942;2023-03-19T04:15:51;9.80;99.90
9223;DHT22;7557;51.698;3.942;2023-03-19T04:18:21;9.80;99.90
9223;DHT22;7557;51.698;3.942;2023-03-19T04:20:48;9.80;99.90
9223;DHT22;7557;51.698;3.942;2023-03-19T04:23:15;9.80;99.90
9223;DHT22;7557;51.698;3.942;2023-03-19T04:25:44;9.80;99.90
9223;DHT22;7557;51.698;3.942;2023-03-19T04:28:13;9.80;99.90
9223;DHT22;7557;51.698;3.942;2023-03-19T04:30:40;9.80;99.90
9223;DHT22;7557;51.698;3.942;2023-03-19T04:33:09;9.80;99.90
9223;DHT22;7557;51.698;3.942;2023-03-19T04:35:37;9.80;99.90
9223;DHT22;7557;51.698;3.942;2023-03-19T04:38:05;9.80;99.90
9223;DHT22;7557;51.698;3.942;2023-03-19T04:40:32;9.90;99.90
9223;DHT22;7557;51.698;3.942;2023-03-19T04:43:01;9.90;99.90
9223;DHT22;7557;51.698;3.942;2023-03-19T04:45:28;9.90;99.90
9223;DHT22;7557;51.698;3.942;2023-03-19T04:47:56;9.80;99.90
9223;DHT22;7557;51.698;3.942;2023-03-19T04:50:23;9.90;99.90
9223;DHT22;7557;51.698;3.942;2023-03-19T04:52:51;9.90;99.90
9223;DHT22;7557;51.698;3.942;2023-03-19T04:55:19;9.90;99.90
9223;DHT22;7557;51.698;3.942;2023-03-19T04:57:47;9.90;99.90
9223;DHT22;7557;51.698;3.942;2023-03-19T05:00:16;10.00;99.90
9223;DHT22;7557;51.698;3.942;2023-03-19T05:02:44;10.00;99.90
9223;DHT22;7557;51.698;3.942;2023-03-19T05:05:12;10.00;99.90
9223;DHT22;7557;51.698;3.942;2023-03-19T05:07:39;10.10;99.90
9223;DHT22;7557;51.698;3.942;2023-03-19T05:10:08;10.10;99.90
9223;DHT22;7557;51.698;3.942;2023-03-19T05:12:36;10.10;99.90
9223;DHT22;7557;51.698;3.942;2023-03-19T05:15:04;10.10;99.90
9223;DHT22;7557;51.698;3.942;2023-03-19T05:17:33;10.10;99.90
9223;DHT22;7557;51.698;3.942;2023-03-19T05:20:02;10.10;99.90
9223;DHT22;7557;51.698;3.942;2023-03-19T05:22:30;10.00;99.90
9223;DHT22;7557;51.698;3.942;2023-03-19T05:24:59;10.10;99.90
9223;DHT22;7557;51.698;3.942;2023-03-19T05:27:27;10.00;99.90
9223;DHT22;7557;51.698;3.942;2023-03-19T05:29:55;10.00;99.90
9223;DHT22;7557;51.698;3.942;2023-03-19T05:32:22;10.00;99.90
9223;DHT22;7557;51.698;3.942;2023-03-19T05:34:51;10.00;99.90
9223;DHT22;7557;51.698;3.942;2023-03-19T05:37:19;10.00;99.90
9223;DHT22;7557;51.698;3.942;2023-03-19T05:39:46;10.00;99.90
9223;DHT22;7557;51.698;3.942;2023-03-19T05:42:14;10.10;99.90
9223;DHT22;7557;51.698;3.942;2023-03-19T05:44:41;10.10;99.90
9223;DHT22;7557;51.698;3.942;2023-03-19T05:47:09;10.20;99.90
9223;DHT22;7557;51.698;3.942;2023-03-19T05:49:37;10.20;99.90
9223;DHT22;7557;51.698;3.942;2023-03-19T05:52:06;10.20;99.90
9223;DHT22;7557;51.698;3.942;2023-03-19T05:54:34;10.20;99.90
9223;DHT22;7557;51.698;3.942;2023-03-19T05:57:01;10.20;99.90
9223;DHT22;7557;51.698;3.942;2023-03-19T05:59:29;10.20;99.90
9223;DHT22;7557;51.698;3.942;2023-03-19T06:01:56;10.20;99.90
9223;DHT22;7557;51.698;3.942;2023-03-19T06:04:24;10.20;99.90
9223;DHT22;7557;51.698;3.942;2023-03-19T06:06:52;10.20;99.90
9223;DHT22;7557;51.698;3.942;2023-03-19T06:09:20;10.20;99.90
9223;DHT22;7557;51.698;3.942;2023-03-19T06:11:48;10.20;99.90
9223;DHT22;7557;51.698;3.942;2023-03-19T06:14:15;10.20;99.90
9223;DHT22;7557;51.698;3.942;2023-03-19T06:16:43;10.20;99.90
9223;DHT22;7557;51.698;3.942;2023-03-19T06:19:11;10.20;99.90
9223;DHT22;7557;51.698;3.942;2023-03-19T06:21:38;10.20;99.90
9223;DHT22;7557;51.698;3.942;2023-03-19T06:24:06;10.20;99.90
9223;DHT22;7557;51.698;3.942;2023-03-19T06:26:35;10.20;99.90
9223;DHT22;7557;51.698;3.942;2023-03-19T06:29:03;10.20;99.90
9223;DHT22;7557;51.698;3.942;2023-03-19T06:31:31;10.20;99.90
9223;DHT22;7557;51.698;3.942;2023-03-19T06:33:58;10.30;99.90
9223;DHT22;7557;51.698;3.942;2023-03-19T06:36:25;10.30;99.90
9223;DHT22;7557;51.698;3.942;2023-03-19T06:38:53;10.30;99.90
9223;DHT22;7557;51.698;3.942;2023-03-19T06:41:21;10.30;99.90
9223;DHT22;7557;51.698;3.942;2023-03-19T06:43:51;10.30;99.90
9223;DHT22;7557;51.698;3.942;2023-03-19T06:46:18;10.30;99.90
9223;DHT22;7557;51.698;3.942;2023-03-19T06:48:46;10.30;99.90
9223;DHT22;7557;51.698;3.942;2023-03-19T06:51:13;10.30;99.90
9223;DHT22;7557;51.698;3.942;2023-03-19T06:53:41;10.30;99.90
9223;DHT22;7557;51.698;3.942;2023-03-19T06:56:08;10.20;99.90
9223;DHT22;7557;51.698;3.942;2023-03-19T06:58:36;10.20;99.90
9223;DHT22;7557;51.698;3.942;2023-03-19T07:01:05;10.20;99.90
9223;DHT22;7557;51.698;3.942;2023-03-19T07:03:32;10.20;99.90
9223;DHT22;7557;51.698;3.942;2023-03-19T07:06:00;10.20;99.90
9223;DHT22;7557;51.698;3.942;2023-03-19T07:08:27;10.20;99.90
9223;DHT22;7557;51.698;3.942;2023-03-19T07:10:55;10.20;99.90
9223;DHT22;7557;51.698;3.942;2023-03-19T07:13:23;10.30;99.90
9223;DHT22;7557;51.698;3.942;2023-03-19T07:15:50;10.30;99.90
9223;DHT22;7557;51.698;3.942;2023-03-19T07:18:23;10.30;99.90
9223;DHT22;7557;51.698;3.942;2023-03-19T07:20:51;10.40;99.90
9223;DHT22;7557;51.698;3.942;2023-03-19T07:23:19;10.40;99.90
9223;DHT22;7557;51.698;3.942;2023-03-19T07:25:46;10.40;99.90
9223;DHT22;7557;51.698;3.942;2023-03-19T07:28:14;10.40;99.90
9223;DHT22;7557;51.698;3.942;2023-03-19T07:30:41;10.50;99.90
9223;DHT22;7557;51.698;3.942;2023-03-19T07:33:08;10.50;99.90
9223;DHT22;7557;51.698;3.942;2023-03-19T07:35:37;10.60;99.90
9223;DHT22;7557;51.698;3.942;2023-03-19T07:38:06;10.60;99.90
9223;DHT22;7557;51.698;3.942;2023-03-19T07:40:33;10.60;99.90
9223;DHT22;7557;51.698;3.942;2023-03-19T07:43:01;10.70;99.90
9223;DHT22;7557;51.698;3.942;2023-03-19T07:45:28;10.70;99.90
9223;DHT22;7557;51.698;3.942;2023-03-19T07:47:56;10.80;99.90
9223;DHT22;7557;51.698;3.942;2023-03-19T07:50:23;10.90;99.90
9223;DHT22;7557;51.698;3.942;2023-03-19T07:52:52;10.90;99.90
9223;DHT22;7557;51.698;3.942;2023-03-19T07:55:21;11.00;99.90
9223;DHT22;7557;51.698;3.942;2023-03-19T07:57:48;11.10;99.90
9223;DHT22;7557;51.698;3.942;2023-03-19T08:00:16;11.20;99.90
9223;DHT22;7557;51.698;3.942;2023-03-19T08:02:44;11.20;99.90
9223;DHT22;7557;51.698;3.942;2023-03-19T08:05:11;11.30;99.90
9223;DHT22;7557;51.698;3.942;2023-03-19T08:07:39;11.30;99.90
9223;DHT22;7557;51.698;3.942;2023-03-19T08:10:10;11.30;99.90
9223;DHT22;7557;51.698;3.942;2023-03-19T08:12:38;11.30;99.90
9223;DHT22;7557;51.698;3.942;2023-03-19T08:15:08;11.30;99.90
9223;DHT22;7557;51.698;3.942;2023-03-19T08:17:36;11.30;99.90
9223;DHT22;7557;51.698;3.942;2023-03-19T08:20:05;11.30;99.90
9223;DHT22;7557;51.698;3.942;2023-03-19T08:22:34;11.40;99.90
9223;DHT22;7557;51.698;3.942;2023-03-19T08:25:01;11.40;99.90
9223;DHT22;7557;51.698;3.942;2023-03-19T08:27:31;11.40;99.90
9223;DHT22;7557;51.698;3.942;2023-03-19T08:30:01;11.40;99.90
9223;DHT22;7557;51.698;3.942;2023-03-19T08:32:29;11.50;99.90
9223;DHT22;7557;51.698;3.942;2023-03-19T08:34:56;11.50;99.90
9223;DHT22;7557;51.698;3.942;2023-03-19T08:37:24;11.60;99.90
9223;DHT22;7557;51.698;3.942;2023-03-19T08:39:51;11.60;99.90
9223;DHT22;7557;51.698;3.942;2023-03-19T08:42:19;11.60;99.90
9223;DHT22;7557;51.698;3.942;2023-03-19T08:44:49;11.60;99.90
9223;DHT22;7557;51.698;3.942;2023-03-19T08:47:16;11.60;99.90
9223;DHT22;7557;51.698;3.942;2023-03-19T08:49:44;11.60;99.90
9223;DHT22;7557;51.698;3.942;2023-03-19T08:52:12;11.60;99.90
9223;DHT22;7557;51.698;3.942;2023-03-19T08:54:39;11.60;99.90
9223;DHT22;7557;51.698;3.942;2023-03-19T08:57:07;11.60;99.90
9223;DHT22;7557;51.698;3.942;2023-03-19T08:59:34;11.50;99.90
9223;DHT22;7557;51.698;3.942;2023-03-19T09:02:04;11.50;99.90
9223;DHT22;7557;51.698;3.942;2023-03-19T09:04:31;11.50;99.90
9223;DHT22;7557;51.698;3.942;2023-03-19T09:07:03;11.50;99.90
9223;DHT22;7557;51.698;3.942;2023-03-19T09:09:30;11.50;99.90
9223;DHT22;7557;51.698;3.942;2023-03-19T09:11:58;11.40;99.90
9223;DHT22;7557;51.698;3.942;2023-03-19T09:14:26;11.40;99.90
9223;DHT22;7557;51.698;3.942;2023-03-19T09:16:53;11.50;99.90
9223;DHT22;7557;51.698;3.942;2023-03-19T09:19:22;11.50;99.90
9223;DHT22;7557;51.698;3.942;2023-03-19T09:21:50;11.50;99.90
9223;DHT22;7557;51.698;3.942;2023-03-19T09:24:19;11.50;99.90
9223;DHT22;7557;51.698;3.942;2023-03-19T09:26:47;11.50;99.90
9223;DHT22;7557;51.698;3.942;2023-03-19T09:29:15;11.60;99.90
9223;DHT22;7557;51.698;3.942;2023-03-19T09:31:43;11.60;99.90
9223;DHT22;7557;51.698;3.942;2023-03-19T09:34:10;11.70;99.90
9223;DHT22;7557;51.698;3.942;2023-03-19T09:36:40;11.70;99.90
9223;DHT22;7557;51.698;3.942;2023-03-19T09:39:08;11.80;99.90
9223;DHT22;7557;51.698;3.942;2023-03-19T09:41:41;11.80;99.90
9223;DHT22;7557;51.698;3.942;2023-03-19T09:44:13;11.80;99.90
9223;DHT22;7557;51.698;3.942;2023-03-19T09:46:44;11.90;99.90
9223;DHT22;7557;51.698;3.942;2023-03-19T09:49:20;11.90;99.90
9223;DHT22;7557;51.698;3.942;2023-03-19T09:51:52;12.00;99.90
9223;DHT22;7557;51.698;3.942;2023-03-19T09:54:32;12.10;99.90
9223;DHT22;7557;51.698;3.942;2023-03-19T09:57:00;12.20;99.90
9223;DHT22;7557;51.698;3.942;2023-03-19T09:59:28;12.20;99.90
9223;DHT22;7557;51.698;3.942;2023-03-19T10:02:18;12.10;99.90
9223;DHT22;7557;51.698;3.942;2023-03-19T10:05:02;12.10;99.90
9223;DHT22;7557;51.698;3.942;2023-03-19T10:08:01;12.20;99.90
9223;DHT22;7557;51.698;3.942;2023-03-19T10:10:42;12.30;99.90
9223;DHT22;7557;51.698;3.942;2023-03-19T10:13:23;12.30;99.90
9223;DHT22;7557;51.698;3.942;2023-03-19T10:15:51;12.50;99.90
9223;DHT22;7557;51.698;3.942;2023-03-19T10:18:23;12.60;99.90
9223;DHT22;7557;51.698;3.942;2023-03-19T10:20:54;12.60;99.90
9223;DHT22;7557;51.698;3.942;2023-03-19T10:23:33;12.60;99.90
9223;DHT22;7557;51.698;3.942;2023-03-19T10:26:07;12.60;99.90
9223;DHT22;7557;51.698;3.942;2023-03-19T10:28:36;12.60;99.90
9223;DHT22;7557;51.698;3.942;2023-03-19T10:34:09;12.70;99.90
9223;DHT22;7557;51.698;3.942;2023-03-19T10:36:40;12.70;99.90
9223;DHT22;7557;51.698;3.942;2023-03-19T10:39:08;12.80;99.90
9223;DHT22;7557;51.698;3.942;2023-03-19T10:41:48;12.90;99.90
9223;DHT22;7557;51.698;3.942;2023-03-19T10:44:26;13.10;99.90
9223;DHT22;7557;51.698;3.942;2023-03-19T10:46:57;13.10;99.90
9223;DHT22;7557;51.698;3.942;2023-03-19T10:49:25;13.10;99.90
9223;DHT22;7557;51.698;3.942;2023-03-19T10:51:56;13.20;99.90
9223;DHT22;7557;51.698;3.942;2023-03-19T10:54:26;13.30;99.90
9223;DHT22;7557;51.698;3.942;2023-03-19T10:56:56;13.30;99.90
9223;DHT22;7557;51.698;3.942;2023-03-19T10:59:25;13.40;99.90
9223;DHT22;7557;51.698;3.942;2023-03-19T11:01:58;13.40;99.90
9223;DHT22;7557;51.698;3.942;2023-03-19T11:04:27;13.40;99.90
9223;DHT22;7557;51.698;3.942;2023-03-19T11:07:07;13.50;99.90
9223;DHT22;7557;51.698;3.942;2023-03-19T11:09:38;13.60;99.90
9223;DHT22;7557;51.698;3.942;2023-03-19T11:12:12;13.60;99.90
9223;DHT22;7557;51.698;3.942;2023-03-19T11:14:42;13.70;99.90
9223;DHT22;7557;51.698;3.942;2023-03-19T11:17:19;13.70;99.90
9223;DHT22;7557;51.698;3.942;2023-03-19T11:19:50;13.80;99.90
9223;DHT22;7557;51.698;3.942;2023-03-19T11:22:21;13.80;99.90
9223;DHT22;7557;51.698;3.942;2023-03-19T11:24:52;13.90;99.90
9223;DHT22;7557;51.698;3.942;2023-03-19T11:27:27;13.90;99.90
9223;DHT22;7557;51.698;3.942;2023-03-19T11:29:55;14.00;99.90
9223;DHT22;7557;51.698;3.942;2023-03-19T11:32:43;14.00;99.90
9223;DHT22;7557;51.698;3.942;2023-03-19T11:35:15;14.00;99.90
9223;DHT22;7557;51.698;3.942;2023-03-19T11:37:52;14.10;99.90
9223;DHT22;7557;51.698;3.942;2023-03-19T11:40:33;14.10;99.90
9223;DHT22;7557;51.698;3.942;2023-03-19T11:46:42;14.20;99.90
9223;DHT22;7557;51.698;3.942;2023-03-19T11:49:32;14.20;99.90
9223;DHT22;7557;51.698;3.942;2023-03-19T11:52:09;14.30;99.90
9223;DHT22;7557;51.698;3.942;2023-03-19T11:54:47;14.30;99.90
9223;DHT22;7557;51.698;3.942;2023-03-19T11:57:28;14.40;99.90
9223;DHT22;7557;51.698;3.942;2023-03-19T12:00:10;14.50;99.90
9223;DHT22;7557;51.698;3.942;2023-03-19T12:03:07;14.50;99.90
9223;DHT22;7557;51.698;3.942;2023-03-19T12:05:45;14.50;99.90
9223;DHT22;7557;51.698;3.942;2023-03-19T12:08:23;14.40;99.90
9223;DHT22;7557;51.698;3.942;2023-03-19T12:11:02;14.40;99.90
9223;DHT22;7557;51.698;3.942;2023-03-19T12:13:50;14.40;99.90
9223;DHT22;7557;51.698;3.942;2023-03-19T12:16:27;14.40;99.90
9223;DHT22;7557;51.698;3.942;2023-03-19T12:19:17;14.30;99.90
9223;DHT22;7557;51.698;3.942;2023-03-19T12:21:58;14.30;99.90
9223;DHT22;7557;51.698;3.942;2023-03-19T12:24:35;14.20;99.90
9223;DHT22;7557;51.698;3.942;2023-03-19T12:27:18;14.20;99.90
9223;DHT22;7557;51.698;3.942;2023-03-19T12:29:56;14.20;99.90
9223;DHT22;7557;51.698;3.942;2023-03-19T12:32:34;14.20;99.90
9223;DHT22;7557;51.698;3.942;2023-03-19T12:35:10;14.10;99.90
9223;DHT22;7557;51.698;3.942;2023-03-19T12:37:43;14.00;99.90
9223;DHT22;7557;51.698;3.942;2023-03-19T12:40:21;14.10;99.90
9223;DHT22;7557;51.698;3.942;2023-03-19T12:42:54;14.10;99.90
9223;DHT22;7557;51.698;3.942;2023-03-19T12:45:29;14.00;99.90
9223;DHT22;7557;51.698;3.942;2023-03-19T12:48:02;14.00;99.90
9223;DHT22;7557;51.698;3.942;2023-03-19T12:50:33;14.00;99.90
9223;DHT22;7557;51.698;3.942;2023-03-19T12:53:06;13.90;99.90
9223;DHT22;7557;51.698;3.942;2023-03-19T12:55:39;13.80;99.90
9223;DHT22;7557;51.698;3.942;2023-03-19T12:58:15;13.70;99.90
9223;DHT22;7557;51.698;3.942;2023-03-19T13:00:51;13.60;99.90
9223;DHT22;7557;51.698;3.942;2023-03-19T13:03:26;13.50;99.90
9223;DHT22;7557;51.698;3.942;2023-03-19T13:05:58;13.30;99.90
9223;DHT22;7557;51.698;3.942;2023-03-19T13:08:32;13.30;99.90
9223;DHT22;7557;51.698;3.942;2023-03-19T13:11:04;13.30;99.90
9223;DHT22;7557;51.698;3.942;2023-03-19T13:13:39;13.20;99.90
9223;DHT22;7557;51.698;3.942;2023-03-19T13:16:22;13.20;99.90
9223;DHT22;7557;51.698;3.942;2023-03-19T13:19:00;13.20;99.90
9223;DHT22;7557;51.698;3.942;2023-03-19T13:21:31;13.10;99.90
9223;DHT22;7557;51.698;3.942;2023-03-19T13:24:03;13.20;99.90
9223;DHT22;7557;51.698;3.942;2023-03-19T13:26:33;13.20;99.90
9223;DHT22;7557;51.698;3.942;2023-03-19T13:29:02;13.20;99.90
9223;DHT22;7557;51.698;3.942;2023-03-19T13:31:36;13.20;99.90
9223;DHT22;7557;51.698;3.942;2023-03-19T13:34:06;13.10;99.90
9223;DHT22;7557;51.698;3.942;2023-03-19T13:36:36;12.90;99.90
9223;DHT22;7557;51.698;3.942;2023-03-19T13:39:11;12.80;99.90
9223;DHT22;7557;51.698;3.942;2023-03-19T13:41:57;12.80;99.90
9223;DHT22;7557;51.698;3.942;2023-03-19T13:44:40;12.50;99.90
9223;DHT22;7557;51.698;3.942;2023-03-19T13:47:38;12.40;99.90
9223;DHT22;7557;51.698;3.942;2023-03-19T13:50:21;12.30;99.90
9223;DHT22;7557;51.698;3.942;2023-03-19T13:52:51;12.20;99.90
9223;DHT22;7557;51.698;3.942;2023-03-19T13:55:30;12.20;99.90
9223;DHT22;7557;51.698;3.942;2023-03-19T13:58:05;12.20;99.90
9223;DHT22;7557;51.698;3.942;2023-03-19T14:00:56;12.10;99.90
9223;DHT22;7557;51.698;3.942;2023-03-19T14:03:28;12.00;99.90
9223;DHT22;7557;51.698;3.942;2023-03-19T14:05:59;11.80;99.90
9223;DHT22;7557;51.698;3.942;2023-03-19T14:08:28;11.80;99.90
9223;DHT22;7557;51.698;3.942;2023-03-19T14:10:59;11.80;99.90
9223;DHT22;7557;51.698;3.942;2023-03-19T14:13:31;11.70;99.90
9223;DHT22;7557;51.698;3.942;2023-03-19T14:16:09;11.70;99.90
9223;DHT22;7557;51.698;3.942;2023-03-19T14:18:41;11.60;99.90
9223;DHT22;7557;51.698;3.942;2023-03-19T14:21:13;11.50;99.90
9223;DHT22;7557;51.698;3.942;2023-03-19T14:23:44;11.50;99.90
9223;DHT22;7557;51.698;3.942;2023-03-19T14:26:18;11.40;99.90
9223;DHT22;7557;51.698;3.942;2023-03-19T14:28:52;11.30;99.90
9223;DHT22;7557;51.698;3.942;2023-03-19T14:31:30;11.30;99.90
9223;DHT22;7557;51.698;3.942;2023-03-19T14:34:03;11.30;99.90
9223;DHT22;7557;51.698;3.942;2023-03-19T14:36:35;11.10;99.90
9223;DHT22;7557;51.698;3.942;2023-03-19T14:39:11;11.20;99.90
9223;DHT22;7557;51.698;3.942;2023-03-19T14:41:43;11.10;99.90
9223;DHT22;7557;51.698;3.942;2023-03-19T14:44:43;11.20;99.90
9223;DHT22;7557;51.698;3.942;2023-03-19T14:47:28;11.20;99.90
9223;DHT22;7557;51.698;3.942;2023-03-19T14:50:32;11.10;99.90
9223;DHT22;7557;51.698;3.942;2023-03-19T14:53:09;10.90;99.90
9223;DHT22;7557;51.698;3.942;2023-03-19T14:55:40;10.90;99.90
9223;DHT22;7557;51.698;3.942;2023-03-19T14:58:09;10.90;99.90
9223;DHT22;7557;51.698;3.942;2023-03-19T15:00:40;10.80;99.90
9223;DHT22;7557;51.698;3.942;2023-03-19T15:03:20;10.80;99.90
9223;DHT22;7557;51.698;3.942;2023-03-19T15:05:55;10.80;99.90
9223;DHT22;7557;51.698;3.942;2023-03-19T15:08:24;10.70;99.90
9223;DHT22;7557;51.698;3.942;2023-03-19T15:11:01;10.80;99.90
9223;DHT22;7557;51.698;3.942;2023-03-19T15:13:48;10.80;99.90
9223;DHT22;7557;51.698;3.942;2023-03-19T15:16:27;10.90;99.90
9223;DHT22;7557;51.698;3.942;2023-03-19T15:18:57;10.90;99.90
9223;DHT22;7557;51.698;3.942;2023-03-19T15:21:28;11.00;99.90
9223;DHT22;7557;51.698;3.942;2023-03-19T15:23:56;11.00;99.90
9223;DHT22;7557;51.698;3.942;2023-03-19T15:26:32;11.00;99.90
9223;DHT22;7557;51.698;3.942;2023-03-19T15:29:00;11.10;99.90
9223;DHT22;7557;51.698;3.942;2023-03-19T15:31:48;11.00;99.90
9223;DHT22;7557;51.698;3.942;2023-03-19T15:34:18;10.80;99.90
9223;DHT22;7557;51.698;3.942;2023-03-19T15:36:48;10.70;99.90
9223;DHT22;7557;51.698;3.942;2023-03-19T15:39:18;10.70;99.90
9223;DHT22;7557;51.698;3.942;2023-03-19T15:41:48;10.80;99.90
9223;DHT22;7557;51.698;3.942;2023-03-19T15:44:20;10.80;99.90
9223;DHT22;7557;51.698;3.942;2023-03-19T15:46:49;10.80;99.90
9223;DHT22;7557;51.698;3.942;2023-03-19T15:49:20;10.70;99.90
9223;DHT22;7557;51.698;3.942;2023-03-19T15:51:53;10.60;99.90
9223;DHT22;7557;51.698;3.942;2023-03-19T15:54:22;10.50;99.90
9223;DHT22;7557;51.698;3.942;2023-03-19T15:56:51;10.50;99.90
9223;DHT22;7557;51.698;3.942;2023-03-19T15:59:20;10.50;99.90
9223;DHT22;7557;51.698;3.942;2023-03-19T16:01:50;10.40;99.90
9223;DHT22;7557;51.698;3.942;2023-03-19T16:04:22;10.40;99.90
9223;DHT22;7557;51.698;3.942;2023-03-19T16:06:54;10.40;99.90
9223;DHT22;7557;51.698;3.942;2023-03-19T16:09:24;10.30;99.90
9223;DHT22;7557;51.698;3.942;2023-03-19T16:11:52;10.30;99.90
9223;DHT22;7557;51.698;3.942;2023-03-19T16:14:25;10.20;99.90
9223;DHT22;7557;51.698;3.942;2023-03-19T16:16:59;10.20;99.90
9223;DHT22;7557;51.698;3.942;2023-03-19T16:19:29;10.10;99.90
9223;DHT22;7557;51.698;3.942;2023-03-19T16:21:59;10.10;99.90
9223;DHT22;7557;51.698;3.942;2023-03-19T16:24:29;10.00;99.90
9223;DHT22;7557;51.698;3.942;2023-03-19T16:27:01;10.00;99.90
9223;DHT22;7557;51.698;3.942;2023-03-19T16:29:37;9.90;99.90
9223;DHT22;7557;51.698;3.942;2023-03-19T16:32:16;9.80;99.90